Aviation Digital Data Service (ADDS)

Output produced by METARs form (0655 UTC 27 March 2015)
found at http://aviationweather.gov/adds/metars/
 
KPBG 270532Z 2706/2806 00000KT 6SM BR OVC060 
     FM271300 35006KT 5SM BR OVC035 
     FM271500 35007KT P6SM BKN025